Time;durP1;ratioP1;P1;durP2;ratioP2;P2;SDS_P1;SDS_P2;PMS_P1;PMS_P2;Temp;Humidity;BMP_temperature;BMP_pressure;BME280_temperature;BME280_humidity;BME280_pressure;Samples;Min_cycle;Max_cycle;Signal;HPM_P1;HPM_P2
2022/11/16 00:00:45;;;;;;;13.23;8.27;;;9.80;99.90;;;;;;5064254;28;20390;-75
2022/11/16 00:03:11;;;;;;;15.80;8.27;;;9.80;99.90;;;;;;5040645;28;20036;-75
2022/11/16 00:05:37;;;;;;;12.70;7.77;;;9.90;99.90;;;;;;5042582;28;20040;-75
2022/11/16 00:08:03;;;;;;;13.23;8.77;;;9.90;99.90;;;;;;5032411;28;20508;-75
2022/11/16 00:10:28;;;;;;;12.83;9.10;;;9.90;99.90;;;;;;5044353;28;20040;-75
2022/11/16 00:12:54;;;;;;;14.23;9.07;;;9.90;99.90;;;;;;5045004;28;20037;-75
2022/11/16 00:15:20;;;;;;;12.63;8.90;;;9.90;99.90;;;;;;5047923;28;20037;-75
2022/11/16 00:17:46;;;;;;;11.23;8.60;;;9.90;99.90;;;;;;5060419;28;20051;-75
2022/11/16 00:20:11;;;;;;;16.10;9.43;;;9.90;99.90;;;;;;5045937;28;20447;-75
2022/11/16 00:22:37;;;;;;;12.97;8.60;;;9.90;99.90;;;;;;5054011;28;20033;-75
2022/11/16 00:25:03;;;;;;;11.53;8.50;;;9.90;99.90;;;;;;5060761;28;20528;-75
2022/11/16 00:27:29;;;;;;;12.25;8.60;;;9.90;99.90;;;;;;5031718;28;20043;-74
2022/11/16 00:29:54;;;;;;;16.70;9.13;;;10.00;99.90;;;;;;5034692;28;20397;-74
2022/11/16 00:32:20;;;;;;;13.97;10.00;;;10.00;99.90;;;;;;5039669;28;20159;-75
2022/11/16 00:34:46;;;;;;;13.03;9.17;;;10.00;99.90;;;;;;5072237;28;20040;-75
2022/11/16 00:37:12;;;;;;;13.80;9.83;;;10.00;99.90;;;;;;5023075;28;20508;-74
2022/11/16 00:39:37;;;;;;;12.63;9.97;;;10.00;99.90;;;;;;5060992;28;20040;-74
2022/11/16 00:42:03;;;;;;;15.03;9.80;;;10.00;99.90;;;;;;5040039;28;20130;-74
2022/11/16 00:44:29;;;;;;;12.70;9.90;;;10.00;99.90;;;;;;5035306;28;20044;-74
2022/11/16 00:46:54;;;;;;;15.00;10.23;;;10.00;99.90;;;;;;5058116;28;20045;-74
2022/11/16 00:49:20;;;;;;;14.00;10.27;;;10.00;99.90;;;;;;5059923;28;20401;-74
2022/11/16 00:51:46;;;;;;;14.27;9.93;;;10.00;99.90;;;;;;5040252;28;20049;-74
2022/11/16 00:54:12;;;;;;;14.30;10.30;;;10.10;99.90;;;;;;5039198;28;20040;-75
2022/11/16 00:56:38;;;;;;;14.77;10.73;;;10.00;99.90;;;;;;5043181;28;20033;-75
2022/11/16 00:59:03;;;;;;;16.20;10.50;;;10.00;99.90;;;;;;5030354;28;20051;-75
2022/11/16 01:01:29;;;;;;;14.63;11.53;;;10.10;99.90;;;;;;5078097;28;20664;-75
2022/11/16 01:03:55;;;;;;;15.30;11.40;;;10.10;99.90;;;;;;5051525;28;20354;-75
2022/11/16 01:06:22;;;;;;;15.47;11.87;;;10.10;99.90;;;;;;5041849;28;20388;-75
2022/11/16 01:08:48;;;;;;;14.93;11.13;;;10.10;99.90;;;;;;5063602;28;20097;-75
2022/11/16 01:14:05;;;;;;;15.67;11.40;;;10.10;99.90;;;;;;5069782;28;20298;-75
2022/11/16 01:16:31;;;;;;;18.97;11.67;;;10.10;99.90;;;;;;5047270;28;20285;-75
2022/11/16 01:18:57;;;;;;;17.80;12.97;;;10.10;99.90;;;;;;5044092;28;20290;-75
2022/11/16 01:21:23;;;;;;;16.17;11.63;;;10.10;99.90;;;;;;5024120;28;20802;-75
2022/11/16 01:23:50;;;;;;;15.57;12.00;;;10.20;99.90;;;;;;5042055;28;20131;-75
2022/11/16 01:26:15;;;;;;;18.37;11.90;;;10.20;99.90;;;;;;5063674;28;20290;-75
2022/11/16 01:28:41;;;;;;;22.37;13.40;;;10.20;99.90;;;;;;5031128;28;20770;-75
2022/11/16 01:31:08;;;;;;;17.43;11.80;;;10.20;99.90;;;;;;5026566;28;20048;-75
2022/11/16 01:33:34;;;;;;;18.13;12.57;;;10.20;99.90;;;;;;5041611;28;20047;-75
2022/11/16 01:36:00;;;;;;;20.90;13.20;;;10.20;99.90;;;;;;5060989;28;20277;-75
2022/11/16 01:38:26;;;;;;;20.40;13.70;;;10.20;99.90;;;;;;5025284;28;20774;-75
2022/11/16 01:40:51;;;;;;;18.33;12.90;;;10.20;99.90;;;;;;5043127;28;20036;-75
2022/11/16 01:43:26;;;;;;;17.73;12.40;;;10.20;99.90;;;;;;5046980;28;20208;-75
2022/11/16 01:45:52;;;;;;;17.20;12.20;;;10.20;99.90;;;;;;5041714;28;20501;-75
2022/11/16 01:48:24;;;;;;;17.83;11.97;;;10.20;99.90;;;;;;5028364;28;20043;-75
2022/11/16 01:50:52;;;;;;;19.87;13.03;;;10.20;99.90;;;;;;5061601;28;20044;-75
2022/11/16 01:53:18;;;;;;;18.73;13.43;;;10.20;99.90;;;;;;5048027;28;20480;-75
2022/11/16 01:55:47;;;;;;;20.80;13.73;;;10.20;99.90;;;;;;5039646;28;20374;-75
2022/11/16 01:58:17;;;;;;;18.70;13.57;;;10.30;99.90;;;;;;5043003;28;20724;-75
2022/11/16 02:00:43;;;;;;;18.13;13.10;;;10.30;99.90;;;;;;5044062;28;20278;-75
2022/11/16 02:03:09;;;;;;;21.30;13.67;;;10.20;99.90;;;;;;5038758;28;20834;-75
2022/11/16 02:06:06;;;;;;;19.90;14.20;;;10.30;99.90;;;;;;5045794;28;20443;-75
2022/11/16 02:11:39;;;;;;;19.33;13.43;;;10.30;99.90;;;;;;5063064;28;20314;-75
2022/11/16 02:14:16;;;;;;;21.20;14.30;;;10.30;99.90;;;;;;5063179;28;20653;-75
2022/11/16 02:17:03;;;;;;;22.07;14.13;;;10.30;99.90;;;;;;5042459;28;20285;-74
2022/11/16 02:19:58;;;;;;;18.60;14.13;;;10.30;99.90;;;;;;5045886;28;20279;-74
2022/11/16 02:22:48;;;;;;;20.73;14.20;;;10.30;99.90;;;;;;5056475;28;20290;-75
2022/11/16 02:25:29;;;;;;;21.73;15.10;;;10.30;99.90;;;;;;5052172;28;20429;-75
2022/11/16 02:28:07;;;;;;;22.43;14.53;;;10.30;99.90;;;;;;5047568;28;20279;-75
2022/11/16 02:30:35;;;;;;;22.30;15.30;;;10.30;99.90;;;;;;5062645;28;20676;-75
2022/11/16 02:33:07;;;;;;;20.30;14.30;;;10.30;99.90;;;;;;5045637;28;20397;-75
2022/11/16 02:35:40;;;;;;;20.77;14.63;;;10.40;99.90;;;;;;5060329;28;20284;-75
2022/11/16 02:38:11;;;;;;;23.10;14.37;;;10.40;99.90;;;;;;5045964;28;20274;-75
2022/11/16 02:40:41;;;;;;;24.37;15.27;;;10.40;99.90;;;;;;5043713;28;20279;-75
2022/11/16 02:43:11;;;;;;;22.90;14.57;;;10.30;99.90;;;;;;5046620;28;20360;-75
2022/11/16 02:45:42;;;;;;;21.70;15.03;;;10.30;99.90;;;;;;5067048;28;20305;-75
2022/11/16 02:48:15;;;;;;;23.27;15.37;;;10.30;99.90;;;;;;5067007;28;20880;-75
2022/11/16 02:50:42;;;;;;;22.17;14.73;;;10.30;99.90;;;;;;5050522;28;20326;-75
2022/11/16 02:53:08;;;;;;;21.80;15.00;;;10.30;99.90;;;;;;5047806;28;20321;-75
2022/11/16 02:55:35;;;;;;;20.07;14.70;;;10.30;99.90;;;;;;5061398;28;20287;-75
2022/11/16 02:58:04;;;;;;;20.70;14.03;;;10.30;99.90;;;;;;5065358;28;20037;-75
2022/11/16 03:00:58;;;;;;;20.83;14.33;;;10.40;99.90;;;;;;5065186;28;20281;-75
2022/11/16 03:03:29;;;;;;;19.03;13.87;;;10.40;99.90;;;;;;5059809;28;20326;-75
2022/11/16 03:06:04;;;;;;;21.73;14.93;;;10.40;99.90;;;;;;5050013;28;20282;-75
2022/11/16 03:08:32;;;;;;;19.20;14.05;;;10.40;99.90;;;;;;5060875;28;20368;-75
2022/11/16 03:13:55;;;;;;;21.23;14.00;;;10.30;99.90;;;;;;5054292;28;20307;-75
2022/11/16 03:16:32;;;;;;;22.43;14.17;;;10.40;99.90;;;;;;5049809;28;20279;-75
2022/11/16 03:19:01;;;;;;;18.90;13.37;;;10.30;99.90;;;;;;5049793;28;20307;-75
2022/11/16 03:21:35;;;;;;;20.60;14.37;;;10.40;99.90;;;;;;5049816;28;20295;-75
2022/11/16 03:24:02;;;;;;;20.48;14.48;;;10.40;99.90;;;;;;5061725;28;20283;-75
2022/11/16 03:26:50;;;;;;;19.73;14.53;;;10.40;99.90;;;;;;5066212;28;20119;-75
2022/11/16 03:29:29;;;;;;;21.90;15.33;;;10.30;99.90;;;;;;5066397;28;20325;-75
2022/11/16 03:32:01;;;;;;;25.00;15.27;;;10.40;99.90;;;;;;5049271;28;20302;-75
2022/11/16 03:34:31;;;;;;;22.03;15.20;;;10.30;99.90;;;;;;5044729;28;20296;-75
2022/11/16 03:36:59;;;;;;;18.63;13.97;;;10.40;99.90;;;;;;5060428;28;20306;-75
2022/11/16 03:39:30;;;;;;;19.40;13.93;;;10.40;99.90;;;;;;5063989;28;20285;-75
2022/11/16 03:41:59;;;;;;;21.27;14.27;;;10.40;99.90;;;;;;5040897;28;20299;-75
2022/11/16 03:44:25;;;;;;;24.87;15.43;;;10.40;99.90;;;;;;5046758;28;20764;-75
2022/11/16 03:46:51;;;;;;;23.17;15.73;;;10.40;99.90;;;;;;5044780;28;20640;-75
2022/11/16 03:49:21;;;;;;;20.53;14.23;;;10.40;99.90;;;;;;5064442;28;20289;-75
2022/11/16 03:51:48;;;;;;;24.30;14.87;;;10.40;99.90;;;;;;5060988;28;20325;-75
2022/11/16 03:54:14;;;;;;;22.53;15.30;;;10.40;99.90;;;;;;5049241;28;20729;-75
2022/11/16 03:56:40;;;;;;;21.23;14.83;;;10.40;99.90;;;;;;5061572;28;20284;-75
2022/11/16 03:59:05;;;;;;;22.93;15.13;;;10.40;99.90;;;;;;5059400;28;20340;-75
2022/11/16 04:01:31;;;;;;;24.10;15.67;;;10.40;99.90;;;;;;5061553;28;20048;-75
2022/11/16 04:03:58;;;;;;;20.67;14.33;;;10.40;99.90;;;;;;5042531;28;20051;-75
2022/11/16 04:25:36;;;;;;;20.70;14.00;;;10.40;99.90;;;;;;5060874;28;20278;-74
2022/11/16 04:28:12;;;;;;;21.87;14.70;;;10.40;99.90;;;;;;5065077;28;20560;-74
2022/11/16 04:38:53;;;;;;;21.77;14.63;;;10.40;99.90;;;;;;5057441;28;20319;-75
2022/11/16 04:44:03;;;;;;;21.23;15.23;;;10.40;99.90;;;;;;5049702;28;20098;-75
2022/11/16 04:49:13;;;;;;;21.50;15.83;;;10.50;99.90;;;;;;5049483;28;20044;-74
2022/11/16 04:51:38;;;;;;;18.77;14.00;;;10.50;99.90;;;;;;5031396;28;20311;-75
2022/11/16 04:54:04;;;;;;;20.13;14.13;;;10.50;99.90;;;;;;5040693;28;20055;-75
2022/11/16 04:56:30;;;;;;;22.60;15.17;;;10.50;99.90;;;;;;5031122;28;20044;-75
2022/11/16 04:58:55;;;;;;;21.43;14.83;;;10.50;99.90;;;;;;5025140;28;20040;-75
2022/11/16 05:02:06;;;;;;;23.43;15.17;;;10.50;99.90;;;;;;5028385;28;20129;-75
2022/11/16 05:04:07;;;;;;;;;;;10.50;99.90;;;;;;5048961;28;20074;-75
2022/11/16 05:06:32;;;;;;;18.80;13.63;;;10.50;99.90;;;;;;5058187;28;19932;-76
2022/11/16 05:08:58;;;;;;;17.83;13.73;;;10.50;99.90;;;;;;5048113;28;20051;-75
2022/11/16 05:11:24;;;;;;;22.10;15.13;;;10.50;99.90;;;;;;5061429;28;20163;-75
2022/11/16 05:13:49;;;;;;;20.30;14.80;;;10.50;99.90;;;;;;5064159;28;20386;-75
2022/11/16 05:16:15;;;;;;;22.63;15.13;;;10.50;99.90;;;;;;5064972;28;20033;-75
2022/11/16 05:18:41;;;;;;;19.83;14.07;;;10.50;99.90;;;;;;5032465;28;20105;-75
2022/11/16 05:21:07;;;;;;;21.67;14.13;;;10.50;99.90;;;;;;5050621;28;20082;-75
2022/11/16 05:26:17;;;;;;;18.60;13.37;;;10.60;99.90;;;;;;5064456;28;20052;-75
2022/11/16 05:28:42;;;;;;;15.97;11.63;;;10.60;99.90;;;;;;5047811;28;20294;-75
2022/11/16 05:31:08;;;;;;;18.23;13.57;;;10.60;99.90;;;;;;5055540;28;21053;-75
2022/11/16 05:33:34;;;;;;;15.20;11.53;;;10.60;99.90;;;;;;5042890;28;20101;-75
2022/11/16 05:35:59;;;;;;;16.57;11.90;;;10.60;99.90;;;;;;5021964;28;20183;-75
2022/11/16 05:38:25;;;;;;;18.40;12.10;;;10.50;99.90;;;;;;5038250;28;20557;-75
2022/11/16 05:40:51;;;;;;;16.07;10.70;;;10.50;99.90;;;;;;5020752;28;20042;-75
2022/11/16 05:43:16;;;;;;;14.37;9.93;;;10.50;99.90;;;;;;5019582;28;20041;-75
2022/11/16 05:45:42;;;;;;;16.30;10.83;;;10.50;99.90;;;;;;5038395;28;20550;-75
2022/11/16 05:48:08;;;;;;;13.07;9.77;;;10.40;99.90;;;;;;5045431;28;20050;-75
2022/11/16 05:50:34;;;;;;;14.90;9.93;;;10.40;99.90;;;;;;5010625;28;20041;-75
2022/11/16 05:52:59;;;;;;;16.93;10.03;;;10.40;99.90;;;;;;5024119;28;20086;-75
2022/11/16 05:55:25;;;;;;;15.03;9.40;;;10.30;99.90;;;;;;5027974;28;21002;-75
2022/11/16 05:57:51;;;;;;;15.03;8.83;;;10.30;99.90;;;;;;5041246;28;20040;-75
2022/11/16 06:00:17;;;;;;;12.73;8.90;;;10.20;99.90;;;;;;5036028;28;20453;-75
2022/11/16 06:02:42;;;;;;;17.17;10.00;;;10.20;99.90;;;;;;5028963;28;20289;-74
2022/11/16 06:05:08;;;;;;;16.50;9.93;;;10.20;99.90;;;;;;5058312;28;20401;-75
2022/11/16 06:07:34;;;;;;;14.23;9.20;;;10.20;99.90;;;;;;5040446;28;20450;-74
2022/11/16 06:10:00;;;;;;;16.93;9.93;;;10.10;99.90;;;;;;5026777;28;20506;-75
2022/11/16 06:12:25;;;;;;;13.60;8.50;;;10.10;99.90;;;;;;5046539;28;20047;-74
2022/11/16 06:14:51;;;;;;;13.03;9.47;;;10.10;99.90;;;;;;5034152;28;20056;-74
2022/11/16 06:17:17;;;;;;;13.93;8.00;;;10.10;99.90;;;;;;5065308;28;20102;-74
2022/11/16 06:19:42;;;;;;;15.57;10.23;;;10.10;99.90;;;;;;5030963;28;20093;-75
2022/11/16 06:22:08;;;;;;;19.90;11.00;;;10.10;99.90;;;;;;5033628;28;20048;-75
2022/11/16 06:24:34;;;;;;;16.77;11.73;;;10.00;99.90;;;;;;5033956;28;20092;-74
2022/11/16 06:26:59;;;;;;;18.30;11.50;;;10.00;99.90;;;;;;5066490;28;20048;-74
2022/11/16 06:29:25;;;;;;;14.83;10.00;;;10.00;99.90;;;;;;5046811;28;20052;-75
2022/11/16 06:31:51;;;;;;;17.57;11.60;;;10.00;99.90;;;;;;5030663;28;20044;-75
2022/11/16 06:34:17;;;;;;;18.47;11.93;;;9.90;99.90;;;;;;5045720;28;20072;-75
2022/11/16 06:36:42;;;;;;;16.87;11.23;;;9.90;99.90;;;;;;5034192;28;20452;-74
2022/11/16 06:39:10;;;;;;;14.33;9.80;;;9.90;99.90;;;;;;5028644;28;20615;-74
2022/11/16 06:41:35;;;;;;;13.23;9.60;;;9.90;99.90;;;;;;5050201;28;20040;-74
2022/11/16 06:44:01;;;;;;;18.07;10.70;;;9.90;99.90;;;;;;5033194;28;20289;-74
2022/11/16 06:46:27;;;;;;;14.43;10.30;;;9.90;99.90;;;;;;5050482;28;20083;-74
2022/11/16 06:48:53;;;;;;;16.30;9.90;;;9.90;99.90;;;;;;5062495;28;20537;-74
2022/11/16 06:51:18;;;;;;;16.60;9.93;;;9.90;99.90;;;;;;5045910;28;20257;-74
2022/11/16 06:53:44;;;;;;;13.67;9.33;;;9.80;99.90;;;;;;5049917;28;20048;-74
2022/11/16 06:56:13;;;;;;;15.00;10.07;;;9.80;99.90;;;;;;5031814;28;20039;-74
2022/11/16 06:58:38;;;;;;;15.73;9.57;;;9.80;99.90;;;;;;5067267;28;20055;-74
2022/11/16 07:01:09;;;;;;;14.97;10.43;;;9.80;99.90;;;;;;5049191;28;20951;-74
2022/11/16 07:03:35;;;;;;;15.10;9.23;;;9.80;99.90;;;;;;5041146;28;20047;-74
2022/11/16 07:06:07;;;;;;;13.57;9.17;;;9.80;99.90;;;;;;5050385;28;20279;-74
2022/11/16 07:08:33;;;;;;;15.37;9.37;;;9.80;99.90;;;;;;5036219;28;20526;-74
2022/11/16 07:11:02;;;;;;;13.53;10.27;;;9.80;99.90;;;;;;5056445;28;20385;-75
2022/11/16 07:13:29;;;;;;;15.93;10.87;;;9.80;99.90;;;;;;5060344;28;20510;-76
2022/11/16 07:16:03;;;;;;;14.53;10.57;;;9.70;99.90;;;;;;5042948;28;20592;-74
2022/11/16 07:18:32;;;;;;;14.97;10.90;;;9.70;99.90;;;;;;5061589;28;20286;-74
2022/11/16 07:20:58;;;;;;;14.80;9.60;;;9.70;99.90;;;;;;5059717;28;20801;-74
2022/11/16 07:23:23;;;;;;;14.07;8.67;;;9.70;99.90;;;;;;5048390;28;20279;-74
2022/11/16 07:25:49;;;;;;;13.10;9.00;;;9.70;99.90;;;;;;5041541;28;20599;-74
2022/11/16 07:28:15;;;;;;;17.43;9.57;;;9.60;99.90;;;;;;5048635;28;20072;-74
2022/11/16 07:30:41;;;;;;;17.90;10.23;;;9.60;99.90;;;;;;5063287;28;20045;-74
2022/11/16 07:33:07;;;;;;;13.87;9.10;;;9.60;99.90;;;;;;5028231;28;20049;-76
2022/11/16 07:35:32;;;;;;;15.10;8.87;;;9.60;99.90;;;;;;5043289;28;20048;-76
2022/11/16 07:37:59;;;;;;;12.63;8.87;;;9.60;99.90;;;;;;5048475;28;20124;-76
2022/11/16 07:40:24;;;;;;;15.03;9.73;;;9.60;99.90;;;;;;5028926;28;20507;-75
2022/11/16 07:42:50;;;;;;;18.80;9.33;;;9.60;99.90;;;;;;5062142;28;20649;-76
2022/11/16 07:45:16;;;;;;;13.90;9.67;;;9.60;99.90;;;;;;5045618;28;20056;-76
2022/11/16 07:47:42;;;;;;;17.50;10.30;;;9.60;99.90;;;;;;5043494;28;20085;-76
2022/11/16 07:50:09;;;;;;;17.00;10.17;;;9.60;99.90;;;;;;5038308;28;20368;-75
2022/11/16 07:52:35;;;;;;;19.63;10.63;;;9.60;99.90;;;;;;5036881;28;20045;-74
2022/11/16 07:55:01;;;;;;;16.90;10.00;;;9.60;99.90;;;;;;5062005;28;20290;-74
2022/11/16 07:57:27;;;;;;;13.83;9.67;;;9.60;99.90;;;;;;5061751;28;20044;-74
2022/11/16 07:59:53;;;;;;;16.83;10.90;;;9.50;99.90;;;;;;5058323;28;20040;-75
2022/11/16 08:02:18;;;;;;;17.10;11.13;;;9.50;99.90;;;;;;5044648;28;20307;-75
2022/11/16 08:04:44;;;;;;;18.70;10.63;;;9.50;99.90;;;;;;5059301;28;20071;-76
2022/11/16 08:07:10;;;;;;;17.73;11.40;;;9.50;99.90;;;;;;5063339;28;20051;-75
2022/11/16 08:09:36;;;;;;;17.43;11.10;;;9.50;99.90;;;;;;5060241;28;20573;-75
2022/11/16 08:12:02;;;;;;;16.93;10.47;;;9.50;99.90;;;;;;5045588;28;20515;-75
2022/11/16 08:14:28;;;;;;;14.57;9.30;;;9.50;99.90;;;;;;5059748;28;20283;-75
2022/11/16 08:16:54;;;;;;;17.23;9.97;;;9.50;99.90;;;;;;5016562;28;20047;-75
2022/11/16 08:19:19;;;;;;;15.07;8.97;;;9.50;99.90;;;;;;5045827;28;20052;-75
2022/11/16 08:21:45;;;;;;;14.60;8.97;;;9.50;99.90;;;;;;5035897;28;20039;-76
2022/11/16 08:24:11;;;;;;;15.37;9.37;;;9.50;99.90;;;;;;5044877;28;20048;-75
2022/11/16 08:26:38;;;;;;;17.57;9.70;;;9.50;99.90;;;;;;5044848;28;20051;-76
2022/11/16 08:29:03;;;;;;;18.50;9.67;;;9.50;99.90;;;;;;5058392;28;20051;-76
2022/11/16 08:31:29;;;;;;;20.17;9.67;;;9.60;99.90;;;;;;5026798;28;20311;-75
2022/11/16 08:33:55;;;;;;;15.57;9.63;;;9.60;99.90;;;;;;5065292;28;20319;-76
2022/11/16 08:36:21;;;;;;;16.50;10.10;;;9.60;99.90;;;;;;5049179;28;20446;-75
2022/11/16 08:38:48;;;;;;;18.17;11.00;;;9.70;99.90;;;;;;5025699;28;20040;-76
2022/11/16 08:41:15;;;;;;;22.47;12.27;;;9.70;99.90;;;;;;5061568;28;20559;-76
2022/11/16 08:43:41;;;;;;;21.43;12.67;;;9.70;99.90;;;;;;5059671;28;20298;-76
2022/11/16 08:46:08;;;;;;;21.43;11.93;;;9.80;99.90;;;;;;5031957;28;20291;-74
2022/11/16 08:48:35;;;;;;;24.40;14.00;;;9.90;99.90;;;;;;5043812;28;20282;-75
2022/11/16 08:51:08;;;;;;;29.33;16.57;;;9.90;99.90;;;;;;5048486;28;20443;-76
2022/11/16 08:53:34;;;;;;;30.27;16.27;;;10.00;99.90;;;;;;5033866;28;20292;-77
2022/11/16 08:56:09;;;;;;;24.80;13.73;;;10.10;99.90;;;;;;5059661;28;20278;-77
2022/11/16 08:58:35;;;;;;;21.65;14.10;;;10.10;99.90;;;;;;5035000;28;20052;-75
2022/11/16 09:01:16;;;;;;;24.20;13.87;;;10.20;99.90;;;;;;5043770;28;20033;-76
2022/11/16 09:03:43;;;;;;;23.80;13.40;;;10.20;99.90;;;;;;5060571;28;20285;-76
2022/11/16 09:06:10;;;;;;;21.50;13.83;;;10.20;99.90;;;;;;5041538;28;20698;-75
2022/11/16 09:08:37;;;;;;;24.27;14.17;;;10.30;99.90;;;;;;5031604;28;20324;-75
2022/11/16 09:11:08;;;;;;;23.63;14.23;;;10.30;99.90;;;;;;5053901;28;20303;-76
2022/11/16 09:13:34;;;;;;;24.83;14.90;;;10.50;99.90;;;;;;5043108;28;20283;-74
2022/11/16 09:16:01;;;;;;;25.13;16.10;;;10.50;99.90;;;;;;5043060;28;20275;-75
2022/11/16 09:18:28;;;;;;;26.97;15.43;;;10.60;99.90;;;;;;5061638;28;20303;-75
2022/11/16 09:20:54;;;;;;;25.27;14.70;;;10.70;99.90;;;;;;5051559;28;20345;-77
2022/11/16 09:23:21;;;;;;;25.47;15.40;;;10.80;99.90;;;;;;5060835;28;20627;-75
2022/11/16 09:25:47;;;;;;;28.73;15.53;;;11.00;99.90;;;;;;5044278;28;20279;-76
2022/11/16 09:28:21;;;;;;;24.50;15.87;;;11.10;99.90;;;;;;5027915;28;20487;-76
2022/11/16 09:30:49;;;;;;;24.35;15.60;;;11.30;99.90;;;;;;5057975;28;20660;-76
2022/11/16 09:33:16;;;;;;;21.40;14.43;;;11.40;99.90;;;;;;5031806;28;20062;-75
2022/11/16 09:35:42;;;;;;;19.27;14.03;;;11.60;99.90;;;;;;5060194;28;20734;-74
2022/11/16 09:38:10;;;;;;;21.60;14.30;;;11.60;99.90;;;;;;5053792;28;20400;-74
2022/11/16 09:40:39;;;;;;;22.50;14.20;;;11.60;99.90;;;;;;5039202;28;20463;-74
2022/11/16 09:43:29;;;;;;;20.27;13.70;;;11.60;99.90;;;;;;5054443;28;20329;-75
2022/11/16 09:46:20;;;;;;;19.47;12.60;;;11.60;99.90;;;;;;5049041;28;20279;-75
2022/11/16 09:48:48;;;;;;;20.07;12.37;;;11.50;99.90;;;;;;5054330;28;20298;-75
2022/11/16 09:51:15;;;;;;;18.40;12.43;;;11.40;99.90;;;;;;5060632;28;20675;-75
2022/11/16 09:54:03;;;;;;;17.03;12.50;;;11.40;99.90;;;;;;5045827;28;20358;-74
2022/11/16 09:56:34;;;;;;;19.33;11.63;;;11.40;99.90;;;;;;5061179;28;21071;-75
2022/11/16 09:59:24;;;;;;;16.63;11.63;;;11.40;99.90;;;;;;5059998;28;20283;-75
2022/11/16 10:02:08;;;;;;;16.40;10.63;;;11.40;99.90;;;;;;5041285;28;20278;-75
2022/11/16 10:05:16;;;;;;;14.40;9.50;;;11.40;99.90;;;;;;5040614;28;20282;-75
2022/11/16 10:07:45;;;;;;;16.03;10.30;;;11.30;99.90;;;;;;5063938;28;20278;-75
2022/11/16 10:10:13;;;;;;;16.03;9.73;;;11.20;99.90;;;;;;5062678;28;20298;-75
2022/11/16 10:12:50;;;;;;;17.07;9.87;;;11.20;99.90;;;;;;5056184;28;20316;-75
2022/11/16 10:15:44;;;;;;;12.87;8.50;;;11.30;99.90;;;;;;5057626;28;20287;-76
2022/11/16 10:18:48;;;;;;;16.00;8.93;;;11.30;99.90;;;;;;5036310;28;20280;-76
2022/11/16 10:21:51;;;;;;;12.50;8.30;;;11.30;99.90;;;;;;5007582;28;20830;-75
2022/11/16 10:24:42;;;;;;;15.43;8.53;;;11.30;99.90;;;;;;5038911;28;20286;-76
2022/11/16 10:27:33;;;;;;;14.33;9.07;;;11.30;99.90;;;;;;5042547;28;20271;-76
2022/11/16 10:30:13;;;;;;;18.80;9.30;;;11.30;99.90;;;;;;5054040;28;20335;-76
2022/11/16 10:32:52;;;;;;;15.10;9.50;;;11.20;99.90;;;;;;5039722;28;20299;-76
2022/11/16 10:35:26;;;;;;;16.90;9.23;;;11.20;99.90;;;;;;5041109;28;20286;-75
2022/11/16 10:37:52;;;;;;;17.07;9.60;;;11.20;99.90;;;;;;5059649;28;20282;-75
2022/11/16 10:40:28;;;;;;;15.60;9.93;;;11.20;99.90;;;;;;5054117;28;20378;-75
2022/11/16 10:42:56;;;;;;;15.60;10.10;;;11.20;99.90;;;;;;5042327;28;20848;-75
2022/11/16 10:45:34;;;;;;;15.37;9.97;;;11.30;99.90;;;;;;5039461;28;20970;-75
2022/11/16 10:48:11;;;;;;;15.63;11.27;;;11.20;99.90;;;;;;5061042;28;20318;-76
2022/11/16 10:50:44;;;;;;;19.20;11.10;;;11.20;99.90;;;;;;5066605;28;20716;-75
2022/11/16 10:53:34;;;;;;;15.80;10.50;;;11.20;99.90;;;;;;5049609;28;20526;-75
2022/11/16 10:56:16;;;;;;;16.40;10.97;;;11.30;99.90;;;;;;5039324;28;20344;-75
2022/11/16 10:58:52;;;;;;;16.93;10.70;;;11.30;99.90;;;;;;5046502;28;20769;-75
2022/11/16 11:01:39;;;;;;;18.23;10.83;;;11.30;99.90;;;;;;5047284;28;20790;-75
2022/11/16 11:04:34;;;;;;;16.30;10.27;;;11.40;99.90;;;;;;5060423;28;20281;-75
2022/11/16 11:07:20;;;;;;;15.90;9.85;;;11.50;99.90;;;;;;5048913;28;20381;-75
2022/11/16 11:09:52;;;;;;;11.83;9.07;;;11.60;99.90;;;;;;5059498;28;20125;-75
2022/11/16 11:12:37;;;;;;;12.47;7.77;;;11.50;99.90;;;;;;5062416;28;20328;-74
2022/11/16 11:15:25;;;;;;;12.07;7.63;;;11.50;99.90;;;;;;5062711;28;20859;-74
2022/11/16 11:18:12;;;;;;;13.20;8.83;;;11.40;99.90;;;;;;5065519;28;20098;-74
2022/11/16 11:20:40;;;;;;;15.50;9.40;;;11.20;99.90;;;;;;5063485;28;20379;-74
2022/11/16 11:23:17;;;;;;;16.17;9.50;;;11.10;99.90;;;;;;5049179;28;20275;-75
2022/11/16 11:25:54;;;;;;;13.17;8.10;;;11.10;99.90;;;;;;5042260;28;20367;-75
2022/11/16 11:28:46;;;;;;;15.67;7.23;;;11.00;99.90;;;;;;5054513;28;20781;-76
2022/11/16 11:31:24;;;;;;;10.90;6.30;;;11.10;99.90;;;;;;5033488;28;20779;-75
2022/11/16 11:33:55;;;;;;;11.80;6.00;;;11.00;99.90;;;;;;5064092;28;20276;-75
2022/11/16 11:36:25;;;;;;;11.10;5.97;;;11.00;99.90;;;;;;5045029;28;20289;-76
2022/11/16 11:38:56;;;;;;;10.63;5.83;;;11.00;99.90;;;;;;5058672;28;20479;-75
2022/11/16 11:41:22;;;;;;;14.13;5.17;;;11.00;99.90;;;;;;5062634;28;20275;-76
2022/11/16 11:44:04;;;;;;;13.77;5.57;;;11.00;99.90;;;;;;5042011;28;20334;-76
2022/11/16 11:46:38;;;;;;;13.07;5.17;;;11.10;99.90;;;;;;5055097;28;20806;-74
2022/11/16 11:49:19;;;;;;;9.80;5.30;;;11.20;99.90;;;;;;5060959;28;20287;-75
2022/11/16 11:51:46;;;;;;;11.03;5.07;;;11.20;99.90;;;;;;5059178;28;20334;-75
2022/11/16 11:54:46;;;;;;;10.37;4.80;;;11.40;99.90;;;;;;5060752;28;20283;-75
2022/11/16 11:57:19;;;;;;;10.83;4.23;;;11.50;99.90;;;;;;5048335;28;20498;-74
2022/11/16 11:59:46;;;;;;;12.57;4.80;;;11.70;99.90;;;;;;5065106;28;20286;-75
2022/11/16 12:02:26;;;;;;;12.30;3.77;;;11.70;99.90;;;;;;5056505;28;20287;-76
2022/11/16 12:05:07;;;;;;;13.73;3.90;;;11.60;99.90;;;;;;5039186;28;20291;-75
2022/11/16 12:07:48;;;;;;;8.77;3.50;;;11.50;99.90;;;;;;5055540;28;20708;-75
2022/11/16 12:10:26;;;;;;;11.97;4.17;;;11.40;99.90;;;;;;5042973;28;20560;-74
2022/11/16 12:13:29;;;;;;;8.97;3.70;;;11.30;99.90;;;;;;5038574;28;20310;-75
2022/11/16 12:16:10;;;;;;;10.13;4.53;;;11.20;99.90;;;;;;5055222;28;20270;-75
2022/11/16 12:19:04;;;;;;;11.47;3.47;;;11.20;99.90;;;;;;5061220;28;20287;-75
2022/11/16 12:22:00;;;;;;;9.77;3.87;;;11.20;99.90;;;;;;5069374;28;20850;-74
2022/11/16 12:24:48;;;;;;;13.27;4.63;;;11.20;99.90;;;;;;5058893;28;20318;-75
2022/11/16 12:27:34;;;;;;;12.17;3.77;;;11.10;99.90;;;;;;5061394;28;20044;-76
2022/11/16 12:30:12;;;;;;;10.83;3.23;;;11.00;99.90;;;;;;5056558;28;20301;-75
2022/11/16 12:32:52;;;;;;;10.50;3.63;;;11.00;99.90;;;;;;5065656;28;21217;-75
2022/11/16 12:35:32;;;;;;;15.33;4.60;;;11.00;99.90;;;;;;5065976;28;20275;-76
2022/11/16 12:38:13;;;;;;;11.57;3.30;;;11.00;99.90;;;;;;5066234;28;20274;-76
2022/11/16 12:41:19;;;;;;;9.70;2.83;;;11.10;99.90;;;;;;5040184;28;20650;-75
2022/11/16 12:44:16;;;;;;;13.43;3.80;;;11.10;99.90;;;;;;5057514;28;20290;-75
2022/11/16 12:47:14;;;;;;;9.57;3.17;;;11.10;99.90;;;;;;5034872;28;20287;-76
2022/11/16 12:50:10;;;;;;;10.83;3.40;;;11.10;99.90;;;;;;5042675;28;20868;-76
2022/11/16 12:53:02;;;;;;;15.33;3.77;;;11.10;99.90;;;;;;5044087;28;20325;-76
2022/11/16 12:55:31;;;;;;;11.60;2.60;;;11.10;99.90;;;;;;5048156;28;20651;-74
2022/11/16 12:58:32;;;;;;;10.03;3.00;;;11.10;99.90;;;;;;5060794;28;20354;-75
2022/11/16 13:01:15;;;;;;;11.97;3.37;;;11.10;99.90;;;;;;5057276;28;20286;-75
2022/11/16 13:03:53;;;;;;;9.80;2.93;;;11.00;99.90;;;;;;5057037;28;20293;-74
2022/11/16 13:06:27;;;;;;;9.13;3.60;;;11.00;99.90;;;;;;5064727;28;20279;-75
2022/11/16 13:09:14;;;;;;;10.57;3.33;;;11.00;99.90;;;;;;5049064;28;20320;-74
2022/11/16 13:11:49;;;;;;;7.73;2.33;;;11.00;99.90;;;;;;5055029;28;20307;-75
2022/11/16 13:14:19;;;;;;;8.88;2.60;;;11.00;99.90;;;;;;5065647;28;20283;-74
2022/11/16 13:16:50;;;;;;;13.10;3.07;;;10.90;99.90;;;;;;5065168;28;20451;-75
2022/11/16 13:19:17;;;;;;;10.87;3.07;;;10.90;99.90;;;;;;5048843;28;20401;-75
2022/11/16 13:22:04;;;;;;;11.07;2.93;;;10.90;99.90;;;;;;5060720;28;20355;-74
2022/11/16 13:24:53;;;;;;;10.70;2.90;;;10.90;99.90;;;;;;5060142;28;20294;-75
2022/11/16 13:27:30;;;;;;;11.17;3.03;;;10.90;99.90;;;;;;5046437;28;20282;-76
2022/11/16 13:30:10;;;;;;;11.20;2.47;;;10.90;99.90;;;;;;5052059;28;20282;-75
2022/11/16 13:33:14;;;;;;;8.67;2.30;;;11.00;99.90;;;;;;5044547;28;20810;-75
2022/11/16 13:35:40;;;;;;;11.23;3.10;;;10.90;99.90;;;;;;5057286;28;20284;-75
2022/11/16 13:38:12;;;;;;;9.83;2.57;;;10.90;99.90;;;;;;5045177;28;20279;-77
2022/11/16 13:40:38;;;;;;;8.90;2.37;;;10.90;99.90;;;;;;5043230;28;20462;-74